createdAt,value
2022-08-03T00:01:36.800Z,3.33
2022-08-03T00:04:05.160Z,3.63
2022-08-03T00:06:36.785Z,3.30
2022-08-03T00:09:07.095Z,3.58
2022-08-03T00:11:34.729Z,3.83
2022-08-03T00:14:01.956Z,3.60
2022-08-03T00:16:29.237Z,4.38
2022-08-03T00:18:56.305Z,4.57
2022-08-03T00:21:23.561Z,4.10
2022-08-03T00:23:52.388Z,4.55
2022-08-03T00:26:20.972Z,3.83
2022-08-03T00:28:48.995Z,4.15
2022-08-03T00:31:16.441Z,4.07
2022-08-03T00:33:58.382Z,3.72
2022-08-03T00:36:27.571Z,3.65
2022-08-03T00:38:55.453Z,4.25
2022-08-03T00:41:23.005Z,4.32
2022-08-03T00:43:50.412Z,4.30
2022-08-03T00:46:21.422Z,4.47
2022-08-03T00:48:50.903Z,4.20
2022-08-03T00:51:19.902Z,4.15
2022-08-03T00:53:47.358Z,4.68
2022-08-03T00:56:15.678Z,4.90
2022-08-03T00:58:44.734Z,4.60
2022-08-03T01:01:12.969Z,5.00
2022-08-03T01:03:41.015Z,4.63
2022-08-03T01:06:20.022Z,4.97
2022-08-03T01:09:12.240Z,4.85
2022-08-03T01:12:14.627Z,5.10
2022-08-03T01:14:50.616Z,5.90
2022-08-03T01:17:32.158Z,5.95
2022-08-03T01:20:10.694Z,5.63
2022-08-03T01:23:03.436Z,5.38
2022-08-03T01:25:33.550Z,5.68
2022-08-03T01:28:19.936Z,5.45
2022-08-03T01:30:48.673Z,5.43
2022-08-03T01:33:20.365Z,5.18
2022-08-03T01:36:00.474Z,4.65
2022-08-03T01:38:35.935Z,5.20
2022-08-03T01:41:07.413Z,5.47
2022-08-03T01:44:27.623Z,5.13
2022-08-03T01:46:26.250Z,5.35
2022-08-03T01:48:55.360Z,6.03
2022-08-03T01:51:22.908Z,6.10
2022-08-03T01:53:52.202Z,6.35
2022-08-03T01:56:22.256Z,6.22
2022-08-03T01:58:50.707Z,6.60
2022-08-03T02:01:18.862Z,6.80
2022-08-03T02:04:00.739Z,6.40
2022-08-03T02:06:58.913Z,6.53
2022-08-03T02:09:22.881Z,6.28
2022-08-03T02:11:52.265Z,6.15
2022-08-03T02:14:22.347Z,6.60
2022-08-03T02:16:50.371Z,6.72
2022-08-03T02:19:19.390Z,6.70
2022-08-03T02:21:56.351Z,6.72
2022-08-03T02:24:28.987Z,6.68
2022-08-03T02:26:56.832Z,6.35
2022-08-03T02:32:12.450Z,7.00
2022-08-03T02:34:42.478Z,6.45
2022-08-03T02:37:11.654Z,6.43
2022-08-03T02:39:41.017Z,6.25
2022-08-03T02:42:12.200Z,6.88
2022-08-03T02:44:40.523Z,7.28
2022-08-03T02:47:10.906Z,7.28
2022-08-03T02:49:50.607Z,6.78
2022-08-03T02:52:23.339Z,6.75
2022-08-03T02:54:54.983Z,7.75
2022-08-03T02:57:23.650Z,7.18
2022-08-03T02:59:53.306Z,6.82
2022-08-03T03:02:21.030Z,6.47
2022-08-03T03:05:50.683Z,6.43
2022-08-03T03:07:52.938Z,6.25
2022-08-03T03:10:22.563Z,6.75
2022-08-03T03:12:56.544Z,6.05
2022-08-03T03:15:25.750Z,6.70
2022-08-03T03:17:54.498Z,7.50
2022-08-03T03:20:28.959Z,6.78
2022-08-03T03:23:00.190Z,6.50
2022-08-03T03:25:30.837Z,6.82
2022-08-03T03:28:00.389Z,6.47
2022-08-03T03:30:30.024Z,6.57
2022-08-03T03:32:58.629Z,6.43
2022-08-03T03:35:27.625Z,7.25
2022-08-03T03:37:54.854Z,6.40
2022-08-03T03:40:22.621Z,6.40
2022-08-03T03:42:50.588Z,7.20
2022-08-03T03:47:46.519Z,7.20
2022-08-03T03:50:15.741Z,7.72
2022-08-03T03:52:42.839Z,6.65
2022-08-03T03:55:09.941Z,7.65
2022-08-03T03:57:37.038Z,7.15
2022-08-03T04:00:04.982Z,7.78
2022-08-03T04:05:19.015Z,7.45
2022-08-03T04:08:17.530Z,7.13
2022-08-03T04:11:00.192Z,7.60
2022-08-03T04:13:55.539Z,6.82
2022-08-03T04:16:32.494Z,6.32
2022-08-03T04:19:03.698Z,6.88
2022-08-03T04:21:32.587Z,7.22
2022-08-03T04:24:03.672Z,6.00
2022-08-03T04:26:33.583Z,5.90
2022-08-03T04:29:05.882Z,6.10
2022-08-03T04:31:34.710Z,5.65
2022-08-03T04:34:02.923Z,6.53
2022-08-03T04:36:33.747Z,6.28
2022-08-03T04:39:08.456Z,6.18
2022-08-03T04:42:07.613Z,6.40
2022-08-03T04:44:28.567Z,6.53
2022-08-03T04:46:58.076Z,6.35
2022-08-03T04:49:26.093Z,6.13
2022-08-03T04:51:53.305Z,6.20
2022-08-03T04:54:20.439Z,6.38
2022-08-03T04:56:47.707Z,6.90
2022-08-03T04:59:14.904Z,6.50
2022-08-03T05:01:42.312Z,7.43
2022-08-03T05:04:09.762Z,6.40
2022-08-03T05:06:36.897Z,6.95
2022-08-03T05:09:15.130Z,7.30
2022-08-03T05:12:02.217Z,6.85
2022-08-03T05:14:29.600Z,7.55
2022-08-03T05:16:57.065Z,7.63
2022-08-03T05:19:24.244Z,7.10
2022-08-03T05:21:52.415Z,7.63
2022-08-03T05:24:20.194Z,7.85
2022-08-03T05:26:47.311Z,7.40
2022-08-03T05:29:14.590Z,7.28
2022-08-03T05:31:41.706Z,7.45
2022-08-03T05:34:08.778Z,7.13
2022-08-03T05:36:36.361Z,7.13
2022-08-03T05:39:03.532Z,6.85
2022-08-03T05:41:36.848Z,6.43
2022-08-03T05:44:04.814Z,7.40
2022-08-03T05:46:32.130Z,6.78
2022-08-03T05:48:59.439Z,7.20
2022-08-03T05:51:26.666Z,6.32
2022-08-03T05:53:53.849Z,5.95
2022-08-03T05:56:27.671Z,6.65
2022-08-03T05:58:54.994Z,5.90
2022-08-03T06:01:23.850Z,6.53
2022-08-03T06:03:54.256Z,5.95
2022-08-03T06:06:21.574Z,5.18
2022-08-03T06:08:48.949Z,5.65
2022-08-03T06:11:16.689Z,5.45
2022-08-03T06:16:10.869Z,4.95
2022-08-03T06:18:38.591Z,5.07
2022-08-03T06:23:54.095Z,5.47
2022-08-03T06:26:27.527Z,4.68
2022-08-03T06:29:05.500Z,4.22
2022-08-03T06:31:37.113Z,4.97
2022-08-03T06:34:33.865Z,3.97
2022-08-03T06:36:53.298Z,3.83
2022-08-03T06:39:23.245Z,3.65
2022-08-03T06:41:53.157Z,3.35
2022-08-03T06:44:20.322Z,3.58
2022-08-03T06:46:51.458Z,3.80
2022-08-03T06:49:19.051Z,3.75
2022-08-03T06:52:05.785Z,3.00
2022-08-03T06:54:34.397Z,3.38
2022-08-03T07:00:10.872Z,2.92
2022-08-03T07:02:19.270Z,3.30
2022-08-03T07:04:48.946Z,3.50
2022-08-03T07:07:17.984Z,3.75
2022-08-03T07:09:56.908Z,3.30
2022-08-03T07:12:27.091Z,3.55
2022-08-03T07:14:59.973Z,3.30
2022-08-03T07:17:30.959Z,3.60
2022-08-03T07:20:00.161Z,3.25
2022-08-03T07:22:27.646Z,3.08
2022-08-03T07:24:57.467Z,3.20
2022-08-03T07:27:27.022Z,3.72
2022-08-03T07:29:55.272Z,3.20
2022-08-03T07:32:23.132Z,3.17
2022-08-03T07:34:50.555Z,3.25
2022-08-03T07:37:17.909Z,3.10
2022-08-03T07:39:45.037Z,3.30
2022-08-03T07:42:12.328Z,3.40
2022-08-03T07:44:44.327Z,3.80
2022-08-03T07:47:22.199Z,3.65
2022-08-03T07:49:50.341Z,3.17
2022-08-03T07:52:36.884Z,3.05
2022-08-03T07:55:08.270Z,2.60
2022-08-03T07:57:36.346Z,2.85
2022-08-03T08:00:07.030Z,2.67
2022-08-03T08:02:40.896Z,2.78
2022-08-03T08:05:13.837Z,2.88
2022-08-03T08:07:42.625Z,2.30
2022-08-03T08:10:10.435Z,2.78
2022-08-03T08:12:39.239Z,2.97
2022-08-03T08:15:07.385Z,2.67
2022-08-03T08:17:49.089Z,2.92
2022-08-03T08:20:28.548Z,2.60
2022-08-03T08:23:03.473Z,2.58
2022-08-03T08:25:37.648Z,2.90
2022-08-03T08:28:29.704Z,2.55
2022-08-03T08:30:52.320Z,2.50
2022-08-03T08:33:23.222Z,2.08
2022-08-03T08:35:53.178Z,2.45
2022-08-03T08:38:21.322Z,2.60
2022-08-03T08:40:50.283Z,2.25
2022-08-03T08:43:17.424Z,2.20
2022-08-03T08:45:45.166Z,2.40
2022-08-03T08:48:13.353Z,2.33
2022-08-03T08:50:40.850Z,2.25
2022-08-03T08:55:59.613Z,2.20
2022-08-03T08:58:36.824Z,1.90
2022-08-03T09:01:04.686Z,3.13
2022-08-03T09:03:34.243Z,3.30
2022-08-03T09:06:02.445Z,2.42
2022-08-03T09:08:31.365Z,2.83
2022-08-03T09:10:59.091Z,2.25
2022-08-03T09:13:26.338Z,2.60
2022-08-03T09:16:17.281Z,2.03
2022-08-03T09:18:50.622Z,2.20
2022-08-03T09:21:34.245Z,1.90
2022-08-03T09:24:05.230Z,2.40
2022-08-03T09:26:35.648Z,2.20
2022-08-03T09:29:14.745Z,2.30
2022-08-03T09:31:45.474Z,2.30
2022-08-03T09:34:15.426Z,2.40
2022-08-03T09:36:47.438Z,2.30
2022-08-03T09:39:15.805Z,2.42
2022-08-03T09:42:14.519Z,2.33
2022-08-03T09:44:45.890Z,2.10
2022-08-03T09:47:16.180Z,2.60
2022-08-03T09:50:08.558Z,2.40
2022-08-03T09:52:49.780Z,2.35
2022-08-03T09:56:34.644Z,2.20
2022-08-03T09:58:14.291Z,2.08
2022-08-03T10:00:55.125Z,2.08
2022-08-03T10:03:23.553Z,2.30
2022-08-03T10:05:52.983Z,2.05
2022-08-03T10:08:22.562Z,2.03
2022-08-03T10:10:51.225Z,2.10
2022-08-03T10:13:18.996Z,2.25
2022-08-03T10:16:24.209Z,2.40
2022-08-03T10:18:34.409Z,1.83
2022-08-03T10:21:07.909Z,2.10
2022-08-03T10:23:35.610Z,1.90
2022-08-03T10:26:05.022Z,1.92
2022-08-03T10:28:45.250Z,1.90
2022-08-03T10:31:14.541Z,1.90
2022-08-03T10:33:51.297Z,2.00
2022-08-03T10:36:24.179Z,2.28
2022-08-03T10:38:53.332Z,2.60
2022-08-03T10:41:23.397Z,2.17
2022-08-03T10:43:56.671Z,2.40
2022-08-03T10:46:26.006Z,1.90
2022-08-03T10:48:54.012Z,2.50
2022-08-03T10:51:22.900Z,2.10
2022-08-03T10:53:54.909Z,1.77
2022-08-03T10:56:50.582Z,2.13
2022-08-03T10:59:27.695Z,1.90
2022-08-03T11:01:59.215Z,1.98
2022-08-03T11:04:30.350Z,2.00
2022-08-03T11:07:22.929Z,2.13
2022-08-03T11:09:50.276Z,2.03
2022-08-03T11:12:31.502Z,1.88
2022-08-03T11:15:07.181Z,1.70
2022-08-03T11:17:46.596Z,1.90
2022-08-03T11:20:44.606Z,1.75
2022-08-03T11:23:12.354Z,2.20
2022-08-03T11:26:11.240Z,2.10
2022-08-03T11:28:41.280Z,1.83
2022-08-03T11:31:48.190Z,1.92
2022-08-03T11:34:12.952Z,2.08
2022-08-03T11:37:18.086Z,2.10
2022-08-03T11:39:47.960Z,2.20
2022-08-03T11:42:24.362Z,1.98
2022-08-03T11:44:56.870Z,2.15
2022-08-03T11:47:27.373Z,2.20
2022-08-03T11:49:59.005Z,2.38
2022-08-03T11:52:28.884Z,2.13
2022-08-03T11:54:56.763Z,2.40
2022-08-03T11:59:16.705Z,2.47
2022-08-03T12:00:27.963Z,2.30
2022-08-03T12:03:08.215Z,2.03
2022-08-03T12:05:40.817Z,1.98
2022-08-03T12:08:10.880Z,2.35
2022-08-03T12:10:39.700Z,1.75
2022-08-03T12:14:43.733Z,1.65
2022-08-03T12:15:59.230Z,1.67
2022-08-03T12:18:26.844Z,2.00
2022-08-03T12:21:04.708Z,1.95
2022-08-03T12:23:35.984Z,1.90
2022-08-03T12:26:09.980Z,2.10
2022-08-03T12:28:38.599Z,2.17
2022-08-03T12:31:09.317Z,1.95
2022-08-03T12:34:06.594Z,2.17
2022-08-03T12:36:36.442Z,2.03
2022-08-03T12:39:08.902Z,2.10
2022-08-03T12:41:40.858Z,1.73
2022-08-03T12:44:09.180Z,1.83
2022-08-03T12:46:46.966Z,2.10
2022-08-03T12:49:17.404Z,1.70
2022-08-03T12:51:44.570Z,2.65
2022-08-03T12:54:24.508Z,2.30
2022-08-03T12:57:10.420Z,1.83
2022-08-03T12:59:45.207Z,2.00
2022-08-03T13:02:27.640Z,2.13
2022-08-03T13:04:55.390Z,2.08
2022-08-03T13:07:23.368Z,2.30
2022-08-03T13:09:56.060Z,1.77
2022-08-03T13:12:25.138Z,1.80
2022-08-03T13:14:55.298Z,1.92
2022-08-03T13:17:22.855Z,2.00
2022-08-03T13:19:50.601Z,2.67
2022-08-03T13:22:21.264Z,2.08
2022-08-03T13:24:50.717Z,1.90
2022-08-03T13:28:03.679Z,2.00
2022-08-03T13:30:29.842Z,2.10
2022-08-03T13:32:59.800Z,2.00
2022-08-03T13:35:27.278Z,1.83
2022-08-03T13:37:54.508Z,1.83
2022-08-03T13:42:58.591Z,1.70
2022-08-03T13:45:27.479Z,1.80
2022-08-03T13:47:55.201Z,1.90
2022-08-03T13:50:22.515Z,2.15
2022-08-03T13:52:49.874Z,1.85
2022-08-03T13:58:03.676Z,1.80
2022-08-03T14:00:31.385Z,3.38
2022-08-03T14:03:16.422Z,2.00
2022-08-03T14:05:44.520Z,2.03
2022-08-03T14:08:12.606Z,1.80
2022-08-03T14:10:44.452Z,1.75
2022-08-03T14:13:17.439Z,1.70
2022-08-03T14:15:49.748Z,1.80
2022-08-03T14:18:29.291Z,2.10
2022-08-03T14:21:07.168Z,1.50
2022-08-03T14:23:36.314Z,1.67
2022-08-03T14:26:04.450Z,1.60
2022-08-03T14:28:31.635Z,1.85
2022-08-03T14:33:28.409Z,2.10
2022-08-03T14:35:55.873Z,1.90
2022-08-03T14:38:23.657Z,2.00
2022-08-03T14:40:53.154Z,1.52
2022-08-03T14:43:21.480Z,1.80
2022-08-03T14:45:52.378Z,1.92
2022-08-03T14:50:28.836Z,1.98
2022-08-03T14:51:08.292Z,1.88
2022-08-03T14:56:06.491Z,1.50
2022-08-03T14:58:37.259Z,1.83
2022-08-03T15:01:04.466Z,1.60
2022-08-03T15:03:51.567Z,1.80
2022-08-03T15:09:00.576Z,1.80
2022-08-03T15:11:33.413Z,1.65
2022-08-03T15:18:57.819Z,2.10
2022-08-03T15:21:46.853Z,1.63
2022-08-03T15:24:12.101Z,1.90
2022-08-03T15:29:09.209Z,1.55
2022-08-03T15:31:56.412Z,1.70
2022-08-03T15:41:45.555Z,1.77
2022-08-03T15:44:12.661Z,2.00
2022-08-03T15:46:39.957Z,1.67
2022-08-03T15:54:01.067Z,1.80
2022-08-03T15:56:28.192Z,2.10
2022-08-03T15:59:09.201Z,1.75
2022-08-03T16:01:40.255Z,2.20
2022-08-03T16:04:07.840Z,1.92
2022-08-03T16:06:36.326Z,2.22
2022-08-03T16:09:23.537Z,2.05
2022-08-03T16:11:55.298Z,2.05
2022-08-03T16:14:34.415Z,2.05
2022-08-03T16:17:05.298Z,1.95
2022-08-03T16:19:32.543Z,2.15
2022-08-03T16:22:00.899Z,2.05
2022-08-03T16:24:28.393Z,2.30
2022-08-03T16:26:56.726Z,2.30
2022-08-03T16:29:24.309Z,1.80
2022-08-03T16:31:52.569Z,2.25
2022-08-03T16:34:21.087Z,1.77
2022-08-03T16:36:48.391Z,2.00
2022-08-03T16:39:15.629Z,1.95
2022-08-03T16:42:00.485Z,1.90
2022-08-03T16:44:30.199Z,2.03
2022-08-03T16:46:58.297Z,1.88
2022-08-03T16:49:55.088Z,2.00
2022-08-03T16:52:13.310Z,1.85
2022-08-03T16:54:41.128Z,2.10
2022-08-03T16:57:08.523Z,2.20
2022-08-03T16:59:36.852Z,1.80
2022-08-03T17:02:10.000Z,2.05
2022-08-03T17:04:40.121Z,2.20
2022-08-03T17:07:08.723Z,2.60
2022-08-03T17:09:38.648Z,4.43
2022-08-03T17:12:07.572Z,4.38
2022-08-03T17:14:39.291Z,2.25
2022-08-03T17:17:27.940Z,1.50
2022-08-03T17:19:57.552Z,2.30
2022-08-03T17:22:36.073Z,1.73
2022-08-03T17:25:09.544Z,1.98
2022-08-03T17:28:49.512Z,3.38
2022-08-03T17:30:59.748Z,2.70
2022-08-03T17:33:35.563Z,1.70
2022-08-03T17:36:05.479Z,2.55
2022-08-03T17:38:34.751Z,1.80
2022-08-03T17:41:10.979Z,2.03
2022-08-03T17:44:16.465Z,1.55
2022-08-03T17:46:28.179Z,1.63
2022-08-03T17:48:56.962Z,2.00
2022-08-03T17:51:31.653Z,1.80
2022-08-03T17:54:18.321Z,1.90
2022-08-03T17:57:22.522Z,1.90
2022-08-03T18:00:27.254Z,2.65
2022-08-03T18:03:15.999Z,2.08
2022-08-03T18:06:11.304Z,2.58
2022-08-03T18:08:38.095Z,2.22
2022-08-03T18:11:15.242Z,1.63
2022-08-03T18:13:59.213Z,2.08
2022-08-03T18:16:50.838Z,1.92
2022-08-03T18:19:19.105Z,1.90
2022-08-03T18:22:02.749Z,1.90
2022-08-03T18:24:31.362Z,2.05
2022-08-03T18:27:02.573Z,2.63
2022-08-03T18:29:30.743Z,2.25
2022-08-03T18:32:18.045Z,1.98
2022-08-03T18:34:54.097Z,2.20
2022-08-03T18:37:25.332Z,1.98
2022-08-03T18:39:57.939Z,1.42
2022-08-03T18:42:26.790Z,1.73
2022-08-03T18:44:56.749Z,2.00
2022-08-03T18:47:50.595Z,1.70
2022-08-03T18:50:52.841Z,1.83
2022-08-03T18:54:02.382Z,1.83
2022-08-03T18:56:32.784Z,1.75
2022-08-03T18:59:09.305Z,1.77
2022-08-03T19:01:59.781Z,1.80
2022-08-03T19:04:47.464Z,1.70
2022-08-03T19:07:24.366Z,1.85
2022-08-03T19:10:07.310Z,2.05
2022-08-03T19:12:47.210Z,2.13
2022-08-03T19:15:15.713Z,1.92
2022-08-03T19:17:53.128Z,1.83
2022-08-03T19:20:22.989Z,1.85
2022-08-03T19:22:54.215Z,1.67
2022-08-03T19:25:34.335Z,1.90
2022-08-03T19:28:06.648Z,2.13
2022-08-03T19:30:38.861Z,1.60
2022-08-03T19:33:11.847Z,1.80
2022-08-03T19:35:52.138Z,2.40
2022-08-03T19:38:28.145Z,2.00
2022-08-03T19:41:14.496Z,1.80
2022-08-03T19:43:52.692Z,1.80
2022-08-03T19:46:23.157Z,1.95
2022-08-03T19:52:02.592Z,2.05
2022-08-03T19:54:53.950Z,2.03
2022-08-03T19:57:24.818Z,1.73
2022-08-03T19:59:54.104Z,1.60
2022-08-03T20:05:15.072Z,1.90
2022-08-03T20:07:48.303Z,2.05
2022-08-03T20:10:17.771Z,2.10
2022-08-03T20:12:46.259Z,2.60
2022-08-03T20:15:13.775Z,2.30
2022-08-03T20:17:55.415Z,2.92
2022-08-03T20:20:32.662Z,2.50
2022-08-03T20:23:06.945Z,2.63
2022-08-03T20:25:55.764Z,3.08
2022-08-03T20:28:50.004Z,3.00
2022-08-03T20:31:23.807Z,3.00
2022-08-03T20:34:00.419Z,3.42
2022-08-03T20:36:27.788Z,3.20
2022-08-03T20:38:58.087Z,2.70
2022-08-03T20:41:25.753Z,2.70
2022-08-03T20:49:08.056Z,3.03
2022-08-03T20:51:50.697Z,3.05
2022-08-03T20:54:30.600Z,3.13
2022-08-03T20:57:04.075Z,3.03
2022-08-03T21:02:28.877Z,2.83
2022-08-03T21:05:03.556Z,3.55
2022-08-03T21:08:05.584Z,3.00
2022-08-03T21:10:38.093Z,2.90
2022-08-03T21:13:03.417Z,2.47
2022-08-03T21:13:12.230Z,3.17
2022-08-03T21:13:17.617Z,3.13
2022-08-03T21:16:06.164Z,2.78
2022-08-03T21:18:52.284Z,3.33
2022-08-03T21:21:22.447Z,3.20
2022-08-03T21:23:53.467Z,3.22
2022-08-03T21:26:23.493Z,3.08
2022-08-03T21:28:54.090Z,3.58
2022-08-03T21:31:25.414Z,3.42
2022-08-03T21:33:58.551Z,3.00
2022-08-03T21:36:27.814Z,2.95
2022-08-03T21:38:57.311Z,3.38
2022-08-03T21:41:27.301Z,3.22
2022-08-03T21:43:54.545Z,3.42
2022-08-03T21:46:22.936Z,3.63
2022-08-03T21:48:56.684Z,3.67
2022-08-03T21:51:45.133Z,4.10
2022-08-03T21:54:13.417Z,3.70
2022-08-03T21:56:42.879Z,3.75
2022-08-03T21:59:17.033Z,3.20
2022-08-03T22:01:49.238Z,3.65
2022-08-03T22:12:55.965Z,3.90
2022-08-03T22:15:23.344Z,3.13
2022-08-03T22:17:54.573Z,3.20
2022-08-03T22:20:24.984Z,3.20
2022-08-03T22:34:08.974Z,3.78
2022-08-03T22:36:48.296Z,3.97
2022-08-03T22:39:22.743Z,3.67
2022-08-03T22:41:53.650Z,3.83
2022-08-03T22:44:22.141Z,3.42
2022-08-03T22:46:49.492Z,4.18
2022-08-03T22:49:16.723Z,3.80
2022-08-03T22:51:44.756Z,4.20
2022-08-03T22:54:12.123Z,3.65
2022-08-03T22:56:39.407Z,3.53
2022-08-03T22:59:39.830Z,3.83
2022-08-03T23:02:00.199Z,3.92
2022-08-03T23:04:29.528Z,3.58
2022-08-03T23:07:00.899Z,4.30
2022-08-03T23:09:30.508Z,4.30
2022-08-03T23:12:00.623Z,3.92
2022-08-03T23:14:30.570Z,3.83
2022-08-03T23:17:03.386Z,4.22
2022-08-03T23:19:34.407Z,4.00
2022-08-03T23:22:29.419Z,4.07
2022-08-03T23:24:58.345Z,4.05
2022-08-03T23:27:27.309Z,4.32
2022-08-03T23:29:55.482Z,3.85
2022-08-03T23:32:25.829Z,4.20
2022-08-03T23:35:15.454Z,4.10
2022-08-03T23:38:04.643Z,3.85
2022-08-03T23:40:31.930Z,4.53
2022-08-03T23:43:01.633Z,4.25
2022-08-03T23:45:31.836Z,4.22
2022-08-03T23:47:59.220Z,4.45
2022-08-03T23:50:28.671Z,4.45
2022-08-03T23:53:30.451Z,5.07
2022-08-03T23:56:12.811Z,4.40
2022-08-03T23:58:39.960Z,4.30
